Time;durP1;ratioP1;P1;durP2;ratioP2;P2;SDS_P1;SDS_P2;PMS_P1;PMS_P2;Temp;Humidity;BMP_temperature;BMP_pressure;BME280_temperature;BME280_humidity;BME280_pressure;Samples;Min_cycle;Max_cycle;Signal;HPM_P1;HPM_P2
2023/09/23 00:01:43;;;;;;;9.85;3.67;;;12.00;95.70;;;;;;5033776;28;20701;-76
2023/09/23 00:04:09;;;;;;;9.93;4.10;;;12.10;95.80;;;;;;5044313;28;20466;-73
2023/09/23 00:06:35;;;;;;;7.75;3.47;;;12.00;95.80;;;;;;5035241;28;20117;-73
2023/09/23 00:09:02;;;;;;;10.98;4.50;;;12.00;95.90;;;;;;5037761;28;20029;-73
2023/09/23 00:11:28;;;;;;;11.15;3.97;;;12.00;95.80;;;;;;5037023;28;20556;-75
2023/09/23 00:13:54;;;;;;;9.32;3.65;;;11.90;95.90;;;;;;5035314;28;20641;-73
2023/09/23 00:16:21;;;;;;;8.27;3.53;;;11.90;95.90;;;;;;5034707;28;20048;-73
2023/09/23 00:18:47;;;;;;;11.23;4.10;;;11.90;96.00;;;;;;5032048;28;20029;-75
2023/09/23 00:21:13;;;;;;;10.75;4.25;;;11.90;96.00;;;;;;5039136;28;20068;-74
2023/09/23 00:23:39;;;;;;;16.45;4.75;;;11.90;96.00;;;;;;5034905;28;20577;-72
2023/09/23 00:26:06;;;;;;;11.23;4.18;;;11.90;96.10;;;;;;5040159;28;20080;-73
2023/09/23 00:28:33;;;;;;;9.73;4.43;;;11.80;96.10;;;;;;5041549;28;20045;-74
2023/09/23 00:31:05;;;;;;;10.82;4.18;;;11.80;96.10;;;;;;5035022;28;20035;-73
2023/09/23 00:33:32;;;;;;;13.10;4.15;;;11.80;96.20;;;;;;5034191;28;20052;-74
2023/09/23 00:35:59;;;;;;;11.55;3.80;;;11.80;96.10;;;;;;5036896;28;20037;-74
2023/09/23 00:38:25;;;;;;;9.38;3.70;;;11.70;96.20;;;;;;5036709;28;20034;-74
2023/09/23 00:40:52;;;;;;;9.95;4.10;;;11.80;96.30;;;;;;5037956;28;20045;-76
2023/09/23 00:43:18;;;;;;;9.63;4.32;;;11.70;96.20;;;;;;5037517;28;20106;-74
2023/09/23 00:45:48;;;;;;;10.23;4.22;;;11.70;96.20;;;;;;5033954;28;20771;-74
2023/09/23 00:48:23;;;;;;;11.10;4.07;;;11.70;96.20;;;;;;5033651;28;20029;-77
2023/09/23 00:50:50;;;;;;;9.50;3.90;;;11.70;96.20;;;;;;5050310;28;20051;-75
2023/09/23 00:53:17;;;;;;;12.88;4.20;;;11.70;96.30;;;;;;5039458;28;20025;-72
2023/09/23 00:55:51;;;;;;;12.52;3.83;;;11.60;96.30;;;;;;5037835;28;20101;-75
2023/09/23 00:58:21;;;;;;;8.63;3.45;;;11.70;96.40;;;;;;5034234;28;20037;-76
2023/09/23 01:00:51;;;;;;;9.50;3.75;;;11.60;96.30;;;;;;5020925;28;20132;-75
2023/09/23 01:03:17;;;;;;;10.20;4.05;;;11.60;96.40;;;;;;5008960;28;20065;-74
2023/09/23 01:05:46;;;;;;;8.60;3.80;;;11.70;96.40;;;;;;5026526;28;20796;-76
2023/09/23 01:08:18;;;;;;;8.13;3.70;;;11.70;96.40;;;;;;5019009;28;20034;-77
2023/09/23 01:10:45;;;;;;;7.25;3.80;;;11.60;96.50;;;;;;5017596;28;20088;-74
2023/09/23 01:13:11;;;;;;;10.45;3.80;;;11.60;96.40;;;;;;5017125;28;20037;-74
2023/09/23 01:15:40;;;;;;;9.13;3.67;;;11.60;96.40;;;;;;5026716;28;20110;-77
2023/09/23 01:18:14;;;;;;;9.48;3.88;;;11.60;96.40;;;;;;5033491;28;20517;-74
2023/09/23 01:20:42;;;;;;;8.30;3.70;;;11.60;96.50;;;;;;5038885;28;20462;-75
2023/09/23 01:23:10;;;;;;;11.32;4.47;;;11.60;96.50;;;;;;5035996;28;20033;-74
2023/09/23 01:25:39;;;;;;;12.20;4.38;;;11.60;96.50;;;;;;5034158;28;20087;-74
2023/09/23 01:28:11;;;;;;;8.23;3.45;;;11.50;96.50;;;;;;5037214;28;20025;-77
2023/09/23 01:30:39;;;;;;;9.18;3.90;;;11.50;96.60;;;;;;5035246;28;20132;-73
2023/09/23 01:33:07;;;;;;;10.13;3.58;;;11.60;96.60;;;;;;5036107;28;20044;-76
2023/09/23 01:35:34;;;;;;;8.63;3.97;;;11.60;96.60;;;;;;5033777;28;20033;-77
2023/09/23 01:38:01;;;;;;;12.00;4.40;;;11.60;96.60;;;;;;5040018;28;20487;-74
2023/09/23 01:40:29;;;;;;;11.10;4.00;;;11.50;96.50;;;;;;5030914;28;20080;-75
2023/09/23 01:42:55;;;;;;;9.38;4.30;;;11.50;96.60;;;;;;5032311;28;20059;-76
2023/09/23 01:45:22;;;;;;;8.05;3.55;;;11.50;96.60;;;;;;5033629;28;20039;-74
2023/09/23 01:47:49;;;;;;;12.02;4.22;;;11.60;96.60;;;;;;5030753;28;20032;-74
2023/09/23 01:50:17;;;;;;;8.05;2.80;;;11.50;96.60;;;;;;5030724;28;20194;-76
2023/09/23 01:52:43;;;;;;;9.63;3.50;;;11.50;96.60;;;;;;5038613;28;20017;-74
2023/09/23 01:55:12;;;;;;;8.93;3.40;;;11.50;96.60;;;;;;5028097;28;20041;-76
2023/09/23 01:57:41;;;;;;;11.13;3.65;;;11.50;96.60;;;;;;5039100;28;20056;-77
2023/09/23 02:00:14;;;;;;;11.45;3.72;;;11.40;96.60;;;;;;5031545;28;20727;-74
2023/09/23 02:02:42;;;;;;;10.68;4.10;;;11.50;96.60;;;;;;5028539;28;20017;-74
2023/09/23 02:05:08;;;;;;;10.18;3.78;;;11.40;96.60;;;;;;5035155;28;20124;-75
2023/09/23 02:07:34;;;;;;;12.02;3.50;;;11.40;96.60;;;;;;5042129;28;20044;-75
2023/09/23 02:10:00;;;;;;;7.47;3.35;;;11.40;96.60;;;;;;5039688;28;20029;-75
2023/09/23 02:12:26;;;;;;;10.68;4.15;;;11.40;96.60;;;;;;5028567;28;20679;-76
2023/09/23 02:14:53;;;;;;;10.40;3.70;;;11.40;96.70;;;;;;5035339;28;20116;-74
2023/09/23 02:17:19;;;;;;;10.27;3.70;;;11.40;96.70;;;;;;5031452;28;20029;-74
2023/09/23 02:19:46;;;;;;;9.20;3.40;;;11.30;96.70;;;;;;5028903;28;20127;-75
2023/09/23 02:22:12;;;;;;;9.05;3.20;;;11.40;96.70;;;;;;5030877;28;20395;-73
2023/09/23 02:24:39;;;;;;;10.00;3.30;;;11.40;96.70;;;;;;5032019;28;20040;-73
2023/09/23 02:27:05;;;;;;;11.65;3.45;;;11.40;96.70;;;;;;5034562;28;20045;-74
2023/09/23 02:29:32;;;;;;;12.02;3.60;;;11.30;96.70;;;;;;5034744;28;20060;-74
2023/09/23 02:31:57;;;;;;;9.63;3.10;;;11.40;96.70;;;;;;5031543;28;20100;-73
2023/09/23 02:34:23;;;;;;;8.70;3.60;;;11.30;96.70;;;;;;5039993;28;20129;-75
2023/09/23 02:36:50;;;;;;;11.57;3.40;;;11.30;96.70;;;;;;5030803;28;20056;-74
2023/09/23 02:39:19;;;;;;;9.48;3.63;;;11.30;96.70;;;;;;5028677;28;20538;-75
2023/09/23 02:41:49;;;;;;;11.30;3.97;;;11.30;96.70;;;;;;5027209;28;20050;-75
2023/09/23 02:44:18;;;;;;;8.93;3.90;;;11.30;96.60;;;;;;5043039;28;20748;-73
2023/09/23 02:46:48;;;;;;;8.52;3.53;;;11.30;96.70;;;;;;5033312;28;20087;-73
2023/09/23 02:49:14;;;;;;;8.25;3.80;;;11.30;96.60;;;;;;5029634;28;20076;-76
2023/09/23 02:51:44;;;;;;;8.93;3.40;;;11.30;96.60;;;;;;5032319;28;20041;-73
2023/09/23 02:54:13;;;;;;;10.32;4.20;;;11.30;96.50;;;;;;5029844;28;20053;-73
2023/09/23 02:56:40;;;;;;;8.90;3.53;;;11.30;96.60;;;;;;5031790;28;20127;-76
2023/09/23 02:59:13;;;;;;;11.98;3.95;;;11.30;96.60;;;;;;5033069;28;20041;-76
2023/09/23 03:01:45;;;;;;;9.83;3.97;;;11.20;96.60;;;;;;5032897;28;21160;-75
2023/09/23 03:04:19;;;;;;;10.45;3.90;;;11.20;96.60;;;;;;5031987;28;20495;-72
2023/09/23 03:06:50;;;;;;;9.13;4.00;;;11.20;96.60;;;;;;5032228;28;20036;-74
2023/09/23 03:09:19;;;;;;;8.85;4.22;;;11.20;96.60;;;;;;5022562;28;20603;-75
2023/09/23 03:11:53;;;;;;;11.73;4.00;;;11.10;96.70;;;;;;5036713;28;20045;-75
2023/09/23 03:14:22;;;;;;;9.40;4.30;;;11.20;96.70;;;;;;5034827;28;20041;-73
2023/09/23 03:16:54;;;;;;;10.43;3.92;;;11.10;96.70;;;;;;5038573;28;20067;-74
2023/09/23 03:19:25;;;;;;;15.25;4.35;;;11.10;96.70;;;;;;5029746;28;20096;-73
2023/09/23 03:21:57;;;;;;;12.50;4.07;;;11.20;96.70;;;;;;5029885;28;20087;-73
2023/09/23 03:24:28;;;;;;;11.13;3.85;;;11.10;96.70;;;;;;5036759;28;20036;-75
2023/09/23 03:26:59;;;;;;;10.10;4.35;;;11.10;96.80;;;;;;5020822;28;20018;-73
2023/09/23 03:29:28;;;;;;;10.82;4.55;;;11.10;96.80;;;;;;5023283;28;20064;-73
2023/09/23 03:31:57;;;;;;;10.65;4.00;;;11.10;96.80;;;;;;5024750;28;20021;-73
2023/09/23 03:34:23;;;;;;;8.63;4.00;;;11.10;96.80;;;;;;5022788;28;20874;-76
2023/09/23 03:36:51;;;;;;;9.00;4.43;;;11.10;96.80;;;;;;5021022;28;20022;-73
2023/09/23 03:39:17;;;;;;;11.23;4.78;;;11.10;96.90;;;;;;5016391;28;20038;-74
2023/09/23 03:41:46;;;;;;;11.57;4.65;;;11.10;96.80;;;;;;5014742;28;20089;-76
2023/09/23 03:44:14;;;;;;;8.82;3.75;;;11.10;96.80;;;;;;5024138;28;20030;-73
2023/09/23 03:46:47;;;;;;;11.30;3.92;;;11.10;96.90;;;;;;5021920;28;20094;-74
2023/09/23 03:49:13;;;;;;;10.40;3.85;;;11.10;96.90;;;;;;5024221;28;20061;-76
2023/09/23 03:51:39;;;;;;;9.77;4.55;;;11.10;96.80;;;;;;5018369;28;20468;-75
2023/09/23 03:54:05;;;;;;;11.82;4.35;;;11.10;96.80;;;;;;5020383;28;20041;-75
2023/09/23 03:56:33;;;;;;;9.45;4.30;;;11.10;96.80;;;;;;5020751;28;20080;-75
2023/09/23 03:59:05;;;;;;;11.38;4.85;;;11.10;96.80;;;;;;5018337;28;20044;-74
2023/09/23 04:01:36;;;;;;;11.57;4.00;;;11.00;96.80;;;;;;5014900;28;20567;-74
2023/09/23 04:04:03;;;;;;;10.55;4.30;;;11.00;96.90;;;;;;5020623;28;20052;-73
2023/09/23 04:06:29;;;;;;;9.27;4.18;;;11.00;96.90;;;;;;5013596;28;20041;-73
2023/09/23 04:08:58;;;;;;;9.70;4.22;;;11.10;96.90;;;;;;5016340;28;20503;-74
2023/09/23 04:11:27;;;;;;;11.30;4.40;;;11.00;96.80;;;;;;5025061;28;20136;-74
2023/09/23 04:13:53;;;;;;;14.77;4.88;;;11.00;96.80;;;;;;5024299;28;20049;-74
2023/09/23 04:16:19;;;;;;;9.98;4.72;;;11.00;96.80;;;;;;5017646;28;20068;-75
2023/09/23 04:18:46;;;;;;;11.27;4.72;;;11.00;96.80;;;;;;5013718;28;20116;-74
2023/09/23 04:21:12;;;;;;;8.05;4.82;;;10.90;96.90;;;;;;5012775;28;20385;-74
2023/09/23 04:23:39;;;;;;;8.85;4.65;;;11.00;96.90;;;;;;5007038;28;20069;-74
2023/09/23 04:26:05;;;;;;;9.55;4.63;;;11.00;96.90;;;;;;5013956;28;20115;-74
2023/09/23 04:28:31;;;;;;;10.68;4.53;;;10.90;96.90;;;;;;5019276;28;20041;-74
2023/09/23 04:30:57;;;;;;;8.68;4.72;;;10.90;96.90;;;;;;5019166;28;20124;-75
2023/09/23 04:33:27;;;;;;;11.02;5.30;;;10.90;96.90;;;;;;5018667;28;20125;-75
2023/09/23 04:35:56;;;;;;;9.70;4.90;;;10.90;97.00;;;;;;5016681;28;20117;-77
2023/09/23 04:38:24;;;;;;;12.43;5.47;;;10.90;97.00;;;;;;5019603;28;20041;-76
2023/09/23 04:40:49;;;;;;;15.48;5.10;;;10.90;97.00;;;;;;5024712;28;20043;-75
2023/09/23 04:43:16;;;;;;;16.60;5.57;;;10.80;97.00;;;;;;5023442;28;20058;-75
2023/09/23 04:45:42;;;;;;;12.98;5.22;;;10.80;97.00;;;;;;5014280;28;20396;-74
2023/09/23 04:48:08;;;;;;;9.65;4.95;;;10.80;97.20;;;;;;5017360;28;20040;-76
2023/09/23 04:50:35;;;;;;;11.82;5.55;;;10.80;97.20;;;;;;5032409;28;20041;-76
2023/09/23 04:53:02;;;;;;;10.80;5.03;;;10.90;97.20;;;;;;5032628;28;20114;-74
2023/09/23 04:55:28;;;;;;;12.45;5.22;;;10.80;97.20;;;;;;5034918;28;20174;-74
2023/09/23 04:57:55;;;;;;;9.85;5.30;;;10.80;97.20;;;;;;5029643;28;20029;-76
2023/09/23 05:00:21;;;;;;;9.73;5.22;;;10.80;97.20;;;;;;5015899;28;20038;-74
2023/09/23 05:02:51;;;;;;;14.73;5.22;;;10.80;97.30;;;;;;5012184;28;20845;-74
2023/09/23 05:05:17;;;;;;;11.65;5.10;;;10.90;97.30;;;;;;5015061;28;20042;-76
2023/09/23 05:07:43;;;;;;;11.15;4.78;;;10.80;97.30;;;;;;5012612;28;20028;-76
2023/09/23 05:10:09;;;;;;;13.38;5.43;;;10.80;97.30;;;;;;5012949;28;20038;-76
2023/09/23 05:12:36;;;;;;;13.50;5.55;;;10.80;97.30;;;;;;5016901;28;20073;-75
2023/09/23 05:15:03;;;;;;;10.20;4.85;;;10.80;97.30;;;;;;5036244;28;20029;-73
2023/09/23 05:17:30;;;;;;;10.30;5.05;;;10.80;97.30;;;;;;5037328;28;20036;-73
2023/09/23 05:19:56;;;;;;;10.60;4.82;;;10.80;97.30;;;;;;5042967;28;20056;-73
2023/09/23 05:22:22;;;;;;;11.15;4.80;;;10.80;97.30;;;;;;5029624;28;20445;-73
2023/09/23 05:24:50;;;;;;;10.98;5.13;;;10.90;97.30;;;;;;5021337;28;20048;-73
2023/09/23 05:27:16;;;;;;;10.90;5.15;;;10.90;97.30;;;;;;5021416;28;20026;-74
2023/09/23 05:29:44;;;;;;;11.27;5.30;;;10.90;97.30;;;;;;5020063;28;20049;-73
2023/09/23 05:32:10;;;;;;;13.52;5.20;;;10.80;97.20;;;;;;5018949;28;20026;-74
2023/09/23 05:34:40;;;;;;;12.20;4.75;;;10.90;97.20;;;;;;5020891;28;20049;-74
2023/09/23 05:37:12;;;;;;;11.02;4.95;;;10.90;97.30;;;;;;5021535;28;20026;-73
2023/09/23 05:39:40;;;;;;;13.88;5.38;;;10.90;97.20;;;;;;5018177;28;20407;-73
2023/09/23 05:42:05;;;;;;;11.90;5.72;;;10.90;97.20;;;;;;5020704;28;20034;-71
2023/09/23 05:44:31;;;;;;;9.35;4.82;;;10.90;97.20;;;;;;5016687;28;20063;-70
2023/09/23 05:46:57;;;;;;;10.63;4.90;;;10.90;97.20;;;;;;5015461;28;20487;-69
2023/09/23 05:49:23;;;;;;;14.13;5.07;;;11.00;97.20;;;;;;5028137;28;20047;-72
2023/09/23 05:51:52;;;;;;;11.55;5.22;;;11.00;97.10;;;;;;5013558;28;20517;-70
2023/09/23 05:54:20;;;;;;;10.38;5.00;;;11.00;97.10;;;;;;5012660;28;20037;-70
2023/09/23 05:56:46;;;;;;;12.07;5.45;;;11.10;97.10;;;;;;5016462;28;20017;-72
2023/09/23 05:59:12;;;;;;;11.35;5.50;;;11.10;97.00;;;;;;5018599;28;20536;-69
2023/09/23 06:01:40;;;;;;;11.10;5.20;;;11.10;97.00;;;;;;5022620;28;20037;-72
2023/09/23 06:04:09;;;;;;;7.75;4.45;;;11.10;96.90;;;;;;5018194;28;20068;-71
2023/09/23 06:06:37;;;;;;;9.57;4.53;;;11.20;96.90;;;;;;5013558;28;20034;-71
2023/09/23 06:09:03;;;;;;;12.13;5.10;;;11.30;96.80;;;;;;5013152;28;20041;-71
2023/09/23 06:11:30;;;;;;;9.10;4.60;;;11.30;96.70;;;;;;5020327;28;20456;-72
2023/09/23 06:13:55;;;;;;;12.07;4.47;;;11.30;96.70;;;;;;5022480;28;20037;-69
2023/09/23 06:16:22;;;;;;;9.80;4.63;;;11.30;96.60;;;;;;5020315;28;20383;-69
2023/09/23 06:18:48;;;;;;;12.27;4.93;;;11.40;96.60;;;;;;5021538;28;20045;-70
2023/09/23 06:21:14;;;;;;;12.00;4.57;;;11.40;96.40;;;;;;5022499;28;20127;-72
2023/09/23 06:23:39;;;;;;;11.18;4.80;;;11.50;96.40;;;;;;5021794;28;20449;-75
2023/09/23 06:26:06;;;;;;;9.88;4.47;;;11.60;96.50;;;;;;5011277;28;20466;-71
2023/09/23 06:28:33;;;;;;;13.18;4.80;;;12.00;96.30;;;;;;5020520;28;20034;-73
2023/09/23 06:30:59;;;;;;;9.20;3.55;;;12.40;95.60;;;;;;5022494;28;20047;-73
2023/09/23 06:33:25;;;;;;;9.32;4.07;;;12.70;94.40;;;;;;5020153;28;20624;-70
2023/09/23 06:35:50;;;;;;;9.35;4.53;;;12.80;93.10;;;;;;5018461;28;20615;-70
2023/09/23 06:38:16;;;;;;;9.93;3.80;;;13.00;92.30;;;;;;5016558;28;20099;-71
2023/09/23 06:40:42;;;;;;;10.60;3.70;;;13.00;92.00;;;;;;5030478;28;20037;-70
2023/09/23 06:43:08;;;;;;;10.57;4.20;;;13.10;91.50;;;;;;5020730;28;20048;-70
2023/09/23 06:45:35;;;;;;;10.23;3.65;;;12.90;91.30;;;;;;5019859;28;20029;-70
2023/09/23 06:48:02;;;;;;;11.70;3.90;;;12.80;91.70;;;;;;5020511;28;20029;-70
2023/09/23 06:50:27;;;;;;;9.55;4.03;;;12.70;92.20;;;;;;5020340;28;20036;-72
2023/09/23 06:52:53;;;;;;;10.48;4.50;;;12.60;92.60;;;;;;5020024;28;20017;-70
2023/09/23 06:55:19;;;;;;;11.45;4.10;;;12.50;92.90;;;;;;5021190;28;20536;-72
2023/09/23 06:57:44;;;;;;;10.48;4.45;;;12.50;93.10;;;;;;5015301;28;20422;-72
2023/09/23 07:00:11;;;;;;;10.80;4.25;;;12.40;93.40;;;;;;5022997;28;20102;-72
2023/09/23 07:02:37;;;;;;;13.45;4.93;;;12.50;93.50;;;;;;5016411;28;20022;-71
2023/09/23 07:05:02;;;;;;;11.02;4.10;;;12.60;93.60;;;;;;5021977;28;20073;-71
2023/09/23 07:07:28;;;;;;;9.48;4.70;;;12.60;93.60;;;;;;5010884;28;20032;-71
2023/09/23 07:09:54;;;;;;;9.45;4.10;;;12.60;93.50;;;;;;5008889;28;20033;-73
2023/09/23 07:12:20;;;;;;;9.55;5.07;;;12.60;93.50;;;;;;5016504;28;20503;-70
2023/09/23 07:14:46;;;;;;;11.00;4.60;;;12.70;93.50;;;;;;5010710;28;20129;-71
2023/09/23 07:17:12;;;;;;;13.98;4.57;;;12.80;93.60;;;;;;5012419;28;20455;-72
2023/09/23 07:19:38;;;;;;;9.60;4.10;;;12.90;93.60;;;;;;5016538;28;20049;-71
2023/09/23 07:22:05;;;;;;;8.48;3.92;;;13.00;93.50;;;;;;5012733;28;20041;-71
2023/09/23 07:24:34;;;;;;;10.07;4.85;;;13.00;93.50;;;;;;5028141;28;20040;-70
2023/09/23 07:27:00;;;;;;;11.70;4.38;;;13.10;93.10;;;;;;5015763;28;20271;-70
2023/09/23 07:29:26;;;;;;;9.43;3.92;;;13.10;92.90;;;;;;5018435;28;20748;-71
2023/09/23 07:31:53;;;;;;;10.52;4.85;;;13.20;93.00;;;;;;5015606;28;20045;-70
2023/09/23 07:34:19;;;;;;;13.50;3.95;;;13.20;92.60;;;;;;5014667;28;20037;-69
2023/09/23 07:36:45;;;;;;;10.77;3.83;;;13.30;92.60;;;;;;5016521;28;20029;-70
2023/09/23 07:39:11;;;;;;;9.77;4.55;;;13.40;92.50;;;;;;5016817;28;20046;-70
2023/09/23 07:41:37;;;;;;;10.65;4.40;;;13.50;92.00;;;;;;5017229;28;20041;-68
2023/09/23 07:44:03;;;;;;;11.27;4.38;;;13.60;92.00;;;;;;5026718;28;20041;-71
2023/09/23 07:46:29;;;;;;;9.85;4.18;;;13.70;91.70;;;;;;5025055;28;20040;-69
2023/09/23 07:48:55;;;;;;;15.35;4.85;;;13.90;91.10;;;;;;5017415;28;20088;-71
2023/09/23 07:51:21;;;;;;;13.25;4.38;;;14.00;90.70;;;;;;5029542;28;20575;-72
2023/09/23 07:53:46;;;;;;;11.75;4.28;;;14.10;90.20;;;;;;5032728;28;20440;-70
2023/09/23 07:56:12;;;;;;;10.60;4.05;;;14.30;90.00;;;;;;5031117;28;20029;-73
2023/09/23 07:58:38;;;;;;;11.60;4.47;;;14.50;89.90;;;;;;5032447;28;20033;-70
2023/09/23 08:01:04;;;;;;;11.82;4.57;;;14.60;88.90;;;;;;5019169;28;20069;-70
2023/09/23 08:03:30;;;;;;;8.18;3.78;;;14.70;88.40;;;;;;5014439;28;20041;-73
2023/09/23 08:05:55;;;;;;;12.55;3.90;;;14.90;88.20;;;;;;5017886;28;20038;-72
2023/09/23 08:08:21;;;;;;;10.68;3.70;;;15.00;87.40;;;;;;5018594;28;20037;-71
2023/09/23 08:10:49;;;;;;;10.32;3.63;;;15.10;87.70;;;;;;5016304;28;20912;-73
2023/09/23 08:13:16;;;;;;;11.98;3.80;;;15.10;87.20;;;;;;5018566;28;20072;-74
2023/09/23 08:15:42;;;;;;;11.25;4.22;;;15.10;87.50;;;;;;5032821;28;20056;-73
2023/09/23 08:18:08;;;;;;;13.48;4.93;;;15.10;87.00;;;;;;5035826;28;20663;-73
2023/09/23 08:20:34;;;;;;;11.15;3.78;;;15.00;86.80;;;;;;5026736;28;20660;-70
2023/09/23 08:23:00;;;;;;;10.05;3.83;;;15.10;86.90;;;;;;5020310;28;20041;-70
2023/09/23 08:25:26;;;;;;;11.48;4.55;;;15.10;87.20;;;;;;5017984;28;20037;-70
2023/09/23 08:27:53;;;;;;;9.68;3.60;;;15.10;86.70;;;;;;5021674;28;20584;-71
2023/09/23 08:30:19;;;;;;;11.40;3.83;;;15.30;86.80;;;;;;5038440;28;20041;-72
2023/09/23 08:32:45;;;;;;;14.00;3.70;;;15.40;86.30;;;;;;5044387;28;20465;-71
2023/09/23 08:35:11;;;;;;;8.93;3.70;;;15.30;86.50;;;;;;5034200;28;20044;-71
2023/09/23 08:37:37;;;;;;;9.50;3.35;;;15.50;86.50;;;;;;5036215;28;20014;-72
2023/09/23 08:40:10;;;;;;;10.18;3.35;;;15.50;85.60;;;;;;5032312;28;20658;-73
2023/09/23 08:42:40;;;;;;;13.50;3.63;;;15.50;86.00;;;;;;5035626;28;20025;-68
2023/09/23 08:45:10;;;;;;;10.70;3.83;;;15.70;86.50;;;;;;5029724;28;20391;-68
2023/09/23 08:47:37;;;;;;;10.02;3.03;;;15.80;85.30;;;;;;5038688;28;20025;-72
2023/09/23 08:50:10;;;;;;;7.85;3.10;;;15.80;84.90;;;;;;5033029;28;20052;-71
2023/09/23 08:52:36;;;;;;;11.43;3.50;;;15.90;84.80;;;;;;5040725;28;20084;-70
2023/09/23 08:55:04;;;;;;;10.32;3.60;;;16.00;84.40;;;;;;5030233;28;20423;-72
2023/09/23 08:57:30;;;;;;;8.05;3.10;;;16.10;85.00;;;;;;5039632;28;20640;-71
2023/09/23 08:59:59;;;;;;;9.95;3.70;;;16.30;84.50;;;;;;5034430;28;20212;-72
2023/09/23 09:02:25;;;;;;;10.32;3.30;;;16.30;83.70;;;;;;5043981;28;20036;-68
2023/09/23 09:04:55;;;;;;;9.88;3.42;;;16.30;84.20;;;;;;5035422;28;20044;-72
2023/09/23 09:07:35;;;;;;;12.07;3.17;;;16.20;84.30;;;;;;5031909;28;20029;-69
2023/09/23 09:10:02;;;;;;;10.95;4.00;;;16.20;84.50;;;;;;5035715;28;20049;-69
2023/09/23 09:12:28;;;;;;;13.18;4.38;;;16.60;83.50;;;;;;5040266;28;20368;-69
2023/09/23 09:14:55;;;;;;;11.13;3.85;;;16.80;82.70;;;;;;5035908;28;20059;-70
2023/09/23 09:17:21;;;;;;;10.10;3.78;;;17.00;82.10;;;;;;5040664;28;20403;-70
2023/09/23 09:19:48;;;;;;;7.93;3.33;;;17.10;80.80;;;;;;5032565;28;20041;-72
2023/09/23 09:22:15;;;;;;;10.02;3.35;;;17.20;81.40;;;;;;5030376;28;20025;-70
2023/09/23 09:24:41;;;;;;;11.52;3.30;;;17.10;80.50;;;;;;5030704;28;20045;-69
2023/09/23 09:27:14;;;;;;;10.05;3.80;;;17.20;80.50;;;;;;5032812;28;20033;-70
2023/09/23 09:29:43;;;;;;;9.27;3.20;;;17.20;80.10;;;;;;5033412;28;20036;-71
2023/09/23 09:32:10;;;;;;;10.57;3.92;;;17.00;80.50;;;;;;5041852;28;20033;-71
2023/09/23 09:34:46;;;;;;;12.02;3.92;;;17.10;81.80;;;;;;5030768;28;20038;-73
2023/09/23 09:37:13;;;;;;;9.88;3.33;;;17.10;79.80;;;;;;5037470;28;20026;-71
2023/09/23 09:39:50;;;;;;;12.75;3.65;;;17.30;80.10;;;;;;5032554;28;20625;-70
2023/09/23 09:42:25;;;;;;;9.82;3.47;;;17.50;79.50;;;;;;5038644;28;20025;-71
2023/09/23 09:44:54;;;;;;;10.30;3.38;;;17.40;79.90;;;;;;5039132;28;20048;-68
2023/09/23 09:47:21;;;;;;;7.95;3.47;;;17.40;79.80;;;;;;5037867;28;20741;-70
2023/09/23 09:49:54;;;;;;;10.05;4.05;;;17.70;79.10;;;;;;5040497;28;20068;-69
2023/09/23 09:52:25;;;;;;;10.00;4.75;;;17.90;78.40;;;;;;5041902;28;21204;-69
2023/09/23 09:54:56;;;;;;;11.05;4.25;;;18.10;78.80;;;;;;5037323;28;20483;-69
2023/09/23 09:57:23;;;;;;;9.38;4.72;;;18.10;77.80;;;;;;5036665;28;20025;-70
2023/09/23 09:59:52;;;;;;;11.13;4.20;;;17.70;78.20;;;;;;5031683;28;20045;-69
2023/09/23 10:02:18;;;;;;;10.50;4.95;;;17.80;78.40;;;;;;5033913;28;20017;-70
2023/09/23 10:04:51;;;;;;;10.75;5.47;;;17.80;78.10;;;;;;5035058;28;20039;-67
2023/09/23 10:07:17;;;;;;;9.45;4.40;;;18.20;78.30;;;;;;5038111;28;20024;-68
2023/09/23 10:09:53;;;;;;;13.02;5.18;;;18.60;77.10;;;;;;5034198;28;20041;-70
2023/09/23 10:12:26;;;;;;;10.82;4.55;;;18.80;74.80;;;;;;5030806;28;20037;-69
2023/09/23 10:14:56;;;;;;;8.35;3.83;;;18.30;75.50;;;;;;5031751;28;20048;-73
2023/09/23 10:17:32;;;;;;;9.00;4.70;;;17.60;76.80;;;;;;5039437;28;20723;-69
2023/09/23 10:19:59;;;;;;;11.50;4.40;;;17.20;77.50;;;;;;5029484;28;20045;-71
2023/09/23 10:22:28;;;;;;;13.55;5.13;;;17.10;77.30;;;;;;5032572;28;20657;-72
2023/09/23 10:25:03;;;;;;;11.07;6.22;;;17.30;77.80;;;;;;5031630;28;20033;-72
2023/09/23 10:27:29;;;;;;;12.60;7.13;;;17.30;77.50;;;;;;5040805;28;20056;-73
2023/09/23 10:29:55;;;;;;;10.95;7.00;;;17.00;77.50;;;;;;5045887;28;20124;-70
2023/09/23 10:32:21;;;;;;;11.40;7.95;;;17.30;77.30;;;;;;5033829;28;20016;-70
2023/09/23 10:34:52;;;;;;;13.48;8.65;;;17.30;77.00;;;;;;5033977;28;20097;-70
2023/09/23 10:37:31;;;;;;;11.82;7.80;;;17.40;77.00;;;;;;5042165;28;20486;-71
2023/09/23 10:40:12;;;;;;;12.25;9.00;;;17.70;77.90;;;;;;5032508;28;20998;-69
2023/09/23 10:42:41;;;;;;;11.70;9.18;;;18.00;75.70;;;;;;5038280;28;20111;-70
2023/09/23 10:45:08;;;;;;;11.73;8.55;;;18.40;75.90;;;;;;5039705;28;20037;-71
2023/09/23 10:47:37;;;;;;;11.30;8.77;;;18.60;75.50;;;;;;5040265;28;20025;-70
2023/09/23 10:50:08;;;;;;;9.88;7.00;;;18.50;74.70;;;;;;5028791;28;20044;-73
2023/09/23 10:52:34;;;;;;;12.15;6.60;;;18.50;75.10;;;;;;5031461;28;20018;-68
2023/09/23 10:55:00;;;;;;;10.18;6.07;;;18.80;74.80;;;;;;5031988;28;20037;-70
2023/09/23 10:57:27;;;;;;;9.50;6.00;;;19.00;73.20;;;;;;5033498;28;20030;-71
2023/09/23 10:59:54;;;;;;;8.60;5.63;;;19.00;73.30;;;;;;5036909;28;20064;-69
2023/09/23 11:02:22;;;;;;;11.38;6.05;;;18.90;73.70;;;;;;5030149;28;20032;-70
2023/09/23 11:04:49;;;;;;;9.15;5.70;;;19.00;72.90;;;;;;5033073;28;20041;-71
2023/09/23 11:07:17;;;;;;;10.73;5.32;;;18.70;73.40;;;;;;5034700;28;20028;-73
2023/09/23 11:09:45;;;;;;;11.32;5.43;;;18.90;73.30;;;;;;5032437;28;20037;-71
2023/09/23 11:12:17;;;;;;;7.60;4.97;;;18.70;72.90;;;;;;5029743;28;20053;-72
2023/09/23 11:14:47;;;;;;;8.57;4.82;;;18.90;72.40;;;;;;5037024;28;20048;-72
2023/09/23 11:17:30;;;;;;;12.18;4.70;;;19.00;73.50;;;;;;5038012;28;20013;-71
2023/09/23 11:19:57;;;;;;;9.75;5.15;;;19.10;73.40;;;;;;5034199;28;20057;-70
2023/09/23 11:22:28;;;;;;;9.35;4.68;;;18.60;72.80;;;;;;5036129;28;20124;-73
2023/09/23 11:24:55;;;;;;;9.13;4.32;;;18.30;74.30;;;;;;5031222;28;20120;-68
2023/09/23 11:27:27;;;;;;;9.68;4.28;;;18.60;74.00;;;;;;5039786;28;20041;-70
2023/09/23 11:29:55;;;;;;;10.13;3.60;;;19.00;71.90;;;;;;5029954;28;20033;-69
2023/09/23 11:32:24;;;;;;;8.57;4.05;;;19.40;71.80;;;;;;5044289;28;20673;-69
2023/09/23 11:34:52;;;;;;;7.63;3.88;;;19.70;71.70;;;;;;5036827;28;20051;-73
2023/09/23 11:37:22;;;;;;;6.28;3.65;;;19.60;69.20;;;;;;5034554;28;20025;-70
2023/09/23 11:39:48;;;;;;;9.15;4.20;;;19.10;69.90;;;;;;5037924;28;20034;-70
2023/09/23 11:42:14;;;;;;;11.95;3.78;;;19.30;70.80;;;;;;5044575;28;20032;-70
2023/09/23 11:44:40;;;;;;;7.90;3.28;;;19.50;70.40;;;;;;5036273;28;20112;-69
2023/09/23 11:47:06;;;;;;;7.78;3.38;;;19.50;70.30;;;;;;5035083;28;20052;-69
2023/09/23 11:49:32;;;;;;;8.55;4.25;;;19.60;71.10;;;;;;5038021;28;20103;-70
2023/09/23 11:51:59;;;;;;;8.73;3.30;;;19.40;70.60;;;;;;5037850;28;20025;-69
2023/09/23 11:54:25;;;;;;;7.22;3.65;;;19.10;69.90;;;;;;5037443;28;20131;-70
2023/09/23 11:56:51;;;;;;;8.38;3.33;;;19.10;71.30;;;;;;5043231;28;20017;-72
2023/09/23 11:59:20;;;;;;;6.18;2.90;;;18.70;70.80;;;;;;5043018;28;20495;-71
2023/09/23 12:01:48;;;;;;;5.25;2.80;;;18.50;71.80;;;;;;5043158;28;20029;-71
2023/09/23 12:04:14;;;;;;;8.13;2.80;;;18.30;72.70;;;;;;5044335;28;20117;-73
2023/09/23 12:06:40;;;;;;;5.60;3.03;;;18.30;72.50;;;;;;5046129;28;20123;-70
2023/09/23 12:09:09;;;;;;;6.47;2.58;;;18.40;72.10;;;;;;5034887;28;20541;-72
2023/09/23 12:11:36;;;;;;;8.50;2.60;;;18.70;70.50;;;;;;5026998;28;20045;-72
2023/09/23 12:14:02;;;;;;;7.80;2.47;;;18.60;70.80;;;;;;5038676;28;20095;-72
2023/09/23 12:16:29;;;;;;;15.88;4.25;;;18.40;70.50;;;;;;5032689;28;20043;-70
2023/09/23 12:18:55;;;;;;;36.03;4.70;;;18.30;71.80;;;;;;5041946;28;20087;-70
2023/09/23 12:21:21;;;;;;;8.32;2.53;;;18.30;72.60;;;;;;5035544;28;20076;-69
2023/09/23 12:23:47;;;;;;;6.95;2.67;;;18.30;71.20;;;;;;5036771;28;20044;-72
2023/09/23 12:26:15;;;;;;;6.20;2.20;;;18.60;71.10;;;;;;5037378;28;20041;-73
2023/09/23 12:28:41;;;;;;;6.90;2.00;;;18.90;70.80;;;;;;5036716;28;20441;-70
2023/09/23 12:31:07;;;;;;;8.20;2.42;;;18.90;70.00;;;;;;5027894;28;20038;-73
2023/09/23 12:33:32;;;;;;;9.85;2.25;;;19.20;70.10;;;;;;5034088;28;20034;-74
2023/09/23 12:35:59;;;;;;;7.10;2.10;;;19.30;69.80;;;;;;5035920;28;20087;-75
2023/09/23 12:38:24;;;;;;;9.45;1.88;;;19.50;68.90;;;;;;5040446;28;20024;-74
2023/09/23 12:40:50;;;;;;;8.02;1.80;;;19.60;67.90;;;;;;5037320;28;20040;-71
2023/09/23 12:43:16;;;;;;;9.57;2.40;;;19.80;67.40;;;;;;5039547;28;20131;-70